Terminal Aerodrome Forecast
Issued by NWS

Current Version | Previous Version | Text Only | Print | Product List | Glossary Off
Versions: 1 2 3 4 5 6 7 8 9 10 11 12 13 14 15 16 17 18 19 20 21

000
FTUS41 KRLX 271500 AAA
TAFCKB
TAF AMD
KCKB 271537Z 2716/2812 30006KT P6SM SCT020
      TEMPO 2716/2718 BKN020
     FM272000 30006KT P6SM SCT030
     FM280100 VRB03KT P6SM SKC=

USA.gov is the U.S. government's official web portal to all federal, state and local government web resources and services.